sensor_id;sensor_type;location;lat;lon;timestamp;P1;durP1;ratioP1;P2;durP2;ratioP2
12832;SDS011;6483;51.310;4.462;2022-09-12T00:00:19;14.80;;;13.27;;
12832;SDS011;6483;51.310;4.462;2022-09-12T00:02:50;15.30;;;13.70;;
12832;SDS011;6483;51.310;4.462;2022-09-12T00:05:16;14.90;;;13.25;;
12832;SDS011;6483;51.310;4.462;2022-09-12T00:07:52;18.10;;;14.37;;
12832;SDS011;6483;51.310;4.462;2022-09-12T00:10:21;14.77;;;12.60;;
12832;SDS011;6483;51.310;4.462;2022-09-12T00:12:47;16.83;;;13.30;;
12832;SDS011;6483;51.310;4.462;2022-09-12T00:15:14;14.63;;;13.00;;
12832;SDS011;6483;51.310;4.462;2022-09-12T00:17:42;14.90;;;13.37;;
12832;SDS011;6483;51.310;4.462;2022-09-12T00:20:08;16.73;;;13.37;;
12832;SDS011;6483;51.310;4.462;2022-09-12T00:22:35;14.93;;;13.30;;
12832;SDS011;6483;51.310;4.462;2022-09-12T00:25:03;14.77;;;13.17;;
12832;SDS011;6483;51.310;4.462;2022-09-12T00:27:29;16.10;;;12.77;;
12832;SDS011;6483;51.310;4.462;2022-09-12T00:29:55;14.37;;;12.83;;
12832;SDS011;6483;51.310;4.462;2022-09-12T00:32:21;15.67;;;13.43;;
12832;SDS011;6483;51.310;4.462;2022-09-12T00:34:46;14.37;;;12.70;;
12832;SDS011;6483;51.310;4.462;2022-09-12T00:37:12;14.63;;;12.90;;
12832;SDS011;6483;51.310;4.462;2022-09-12T00:39:41;17.40;;;13.33;;
12832;SDS011;6483;51.310;4.462;2022-09-12T00:42:10;15.60;;;12.43;;
12832;SDS011;6483;51.310;4.462;2022-09-12T00:49:54;14.20;;;12.30;;
12832;SDS011;6483;51.310;4.462;2022-09-12T00:52:38;17.30;;;13.07;;
12832;SDS011;6483;51.310;4.462;2022-09-12T00:58:01;15.50;;;13.53;;
12832;SDS011;6483;51.310;4.462;2022-09-12T01:00:46;16.13;;;13.50;;
12832;SDS011;6483;51.310;4.462;2022-09-12T01:03:13;13.53;;;12.23;;
12832;SDS011;6483;51.310;4.462;2022-09-12T01:05:46;14.20;;;12.77;;
12832;SDS011;6483;51.310;4.462;2022-09-12T01:08:32;17.67;;;14.67;;
12832;SDS011;6483;51.310;4.462;2022-09-12T01:11:04;15.33;;;13.73;;
12832;SDS011;6483;51.310;4.462;2022-09-12T01:13:35;17.07;;;13.77;;
12832;SDS011;6483;51.310;4.462;2022-09-12T01:16:03;17.37;;;14.03;;
12832;SDS011;6483;51.310;4.462;2022-09-12T01:18:38;15.90;;;14.17;;
12832;SDS011;6483;51.310;4.462;2022-09-12T01:26:55;15.07;;;13.40;;
12832;SDS011;6483;51.310;4.462;2022-09-12T01:32:15;16.97;;;13.57;;
12832;SDS011;6483;51.310;4.462;2022-09-12T01:34:52;15.83;;;14.20;;
12832;SDS011;6483;51.310;4.462;2022-09-12T01:37:41;16.83;;;13.50;;
12832;SDS011;6483;51.310;4.462;2022-09-12T01:40:21;17.53;;;15.17;;
12832;SDS011;6483;51.310;4.462;2022-09-12T01:46:15;15.23;;;13.63;;
12832;SDS011;6483;51.310;4.462;2022-09-12T01:48:43;15.07;;;12.77;;
12832;SDS011;6483;51.310;4.462;2022-09-12T01:51:35;15.30;;;13.67;;
12832;SDS011;6483;51.310;4.462;2022-09-12T01:54:14;18.87;;;15.33;;
12832;SDS011;6483;51.310;4.462;2022-09-12T01:56:52;16.53;;;13.47;;
12832;SDS011;6483;51.310;4.462;2022-09-12T01:59:26;16.87;;;14.07;;
12832;SDS011;6483;51.310;4.462;2022-09-12T02:02:13;15.93;;;14.23;;
12832;SDS011;6483;51.310;4.462;2022-09-12T02:05:00;17.83;;;14.10;;
12832;SDS011;6483;51.310;4.462;2022-09-12T02:07:43;18.00;;;14.17;;
12832;SDS011;6483;51.310;4.462;2022-09-12T02:12:52;16.87;;;14.80;;
12832;SDS011;6483;51.310;4.462;2022-09-12T02:15:31;19.87;;;16.17;;
12832;SDS011;6483;51.310;4.462;2022-09-12T02:18:03;19.00;;;15.90;;
12832;SDS011;6483;51.310;4.462;2022-09-12T02:20:32;18.80;;;15.50;;
12832;SDS011;6483;51.310;4.462;2022-09-12T02:23:00;18.87;;;16.17;;
12832;SDS011;6483;51.310;4.462;2022-09-12T02:25:27;20.63;;;16.47;;
12832;SDS011;6483;51.310;4.462;2022-09-12T02:27:58;19.90;;;16.43;;
12832;SDS011;6483;51.310;4.462;2022-09-12T02:30:38;21.57;;;16.17;;
12832;SDS011;6483;51.310;4.462;2022-09-12T02:33:25;21.53;;;16.07;;
12832;SDS011;6483;51.310;4.462;2022-09-12T02:36:02;22.43;;;16.10;;
12832;SDS011;6483;51.310;4.462;2022-09-12T02:38:58;20.80;;;16.77;;
12832;SDS011;6483;51.310;4.462;2022-09-12T02:41:24;22.67;;;16.10;;
12832;SDS011;6483;51.310;4.462;2022-09-12T02:43:50;21.33;;;15.57;;
12832;SDS011;6483;51.310;4.462;2022-09-12T02:46:19;21.43;;;16.80;;
12832;SDS011;6483;51.310;4.462;2022-09-12T02:48:52;21.07;;;16.50;;
12832;SDS011;6483;51.310;4.462;2022-09-12T02:51:19;24.53;;;17.10;;
12832;SDS011;6483;51.310;4.462;2022-09-12T02:53:48;22.17;;;16.57;;
12832;SDS011;6483;51.310;4.462;2022-09-12T02:56:18;21.13;;;16.70;;
12832;SDS011;6483;51.310;4.462;2022-09-12T02:58:48;21.33;;;17.30;;
12832;SDS011;6483;51.310;4.462;2022-09-12T03:01:28;21.57;;;17.30;;
12832;SDS011;6483;51.310;4.462;2022-09-12T03:04:36;22.80;;;17.43;;
12832;SDS011;6483;51.310;4.462;2022-09-12T03:22:01;28.00;;;19.23;;
12832;SDS011;6483;51.310;4.462;2022-09-12T03:24:53;25.70;;;18.53;;
12832;SDS011;6483;51.310;4.462;2022-09-12T03:28:02;22.10;;;17.87;;
12832;SDS011;6483;51.310;4.462;2022-09-12T03:30:38;23.23;;;17.77;;
12832;SDS011;6483;51.310;4.462;2022-09-12T03:33:12;25.27;;;18.67;;
12832;SDS011;6483;51.310;4.462;2022-09-12T03:35:43;24.80;;;17.97;;
12832;SDS011;6483;51.310;4.462;2022-09-12T03:38:09;23.87;;;18.80;;
12832;SDS011;6483;51.310;4.462;2022-09-12T03:40:35;24.57;;;18.07;;
12832;SDS011;6483;51.310;4.462;2022-09-12T03:43:02;28.47;;;19.77;;
12832;SDS011;6483;51.310;4.462;2022-09-12T03:45:29;29.83;;;19.90;;
12832;SDS011;6483;51.310;4.462;2022-09-12T03:47:54;28.27;;;19.60;;
12832;SDS011;6483;51.310;4.462;2022-09-12T03:50:20;27.70;;;19.43;;
12832;SDS011;6483;51.310;4.462;2022-09-12T03:52:46;26.33;;;19.53;;
12832;SDS011;6483;51.310;4.462;2022-09-12T03:55:12;25.73;;;18.37;;
12832;SDS011;6483;51.310;4.462;2022-09-12T03:57:41;25.20;;;19.03;;
12832;SDS011;6483;51.310;4.462;2022-09-12T04:00:07;24.67;;;17.67;;
12832;SDS011;6483;51.310;4.462;2022-09-12T04:02:34;26.90;;;20.07;;
12832;SDS011;6483;51.310;4.462;2022-09-12T04:05:00;29.20;;;20.33;;
12832;SDS011;6483;51.310;4.462;2022-09-12T04:07:25;24.97;;;18.70;;
12832;SDS011;6483;51.310;4.462;2022-09-12T04:09:51;25.03;;;19.00;;
12832;SDS011;6483;51.310;4.462;2022-09-12T04:12:17;26.93;;;19.73;;
12832;SDS011;6483;51.310;4.462;2022-09-12T04:14:46;26.87;;;19.80;;
12832;SDS011;6483;51.310;4.462;2022-09-12T04:17:14;28.43;;;20.50;;
12832;SDS011;6483;51.310;4.462;2022-09-12T04:19:43;29.67;;;20.37;;
12832;SDS011;6483;51.310;4.462;2022-09-12T04:22:09;27.53;;;20.10;;
12832;SDS011;6483;51.310;4.462;2022-09-12T04:24:35;27.30;;;20.00;;
12832;SDS011;6483;51.310;4.462;2022-09-12T04:27:04;33.30;;;21.23;;
12832;SDS011;6483;51.310;4.462;2022-09-12T04:29:29;30.00;;;20.07;;
12832;SDS011;6483;51.310;4.462;2022-09-12T04:31:55;28.63;;;19.63;;
12832;SDS011;6483;51.310;4.462;2022-09-12T04:34:24;27.23;;;20.53;;
12832;SDS011;6483;51.310;4.462;2022-09-12T04:36:50;27.20;;;18.77;;
12832;SDS011;6483;51.310;4.462;2022-09-12T04:39:16;26.43;;;18.23;;
12832;SDS011;6483;51.310;4.462;2022-09-12T04:41:45;30.60;;;21.30;;
12832;SDS011;6483;51.310;4.462;2022-09-12T04:44:11;29.13;;;19.03;;
12832;SDS011;6483;51.310;4.462;2022-09-12T04:46:43;27.47;;;20.43;;
12832;SDS011;6483;51.310;4.462;2022-09-12T04:49:10;26.30;;;18.37;;
12832;SDS011;6483;51.310;4.462;2022-09-12T04:51:37;27.53;;;20.37;;
12832;SDS011;6483;51.310;4.462;2022-09-12T04:54:47;28.53;;;18.87;;
12832;SDS011;6483;51.310;4.462;2022-09-12T04:56:53;24.77;;;17.83;;
12832;SDS011;6483;51.310;4.462;2022-09-12T04:59:20;27.17;;;19.07;;
12832;SDS011;6483;51.310;4.462;2022-09-12T05:01:47;27.60;;;17.97;;
12832;SDS011;6483;51.310;4.462;2022-09-12T05:04:13;23.57;;;17.20;;
12832;SDS011;6483;51.310;4.462;2022-09-12T05:06:42;22.17;;;16.33;;
12832;SDS011;6483;51.310;4.462;2022-09-12T05:09:11;25.37;;;18.63;;
12832;SDS011;6483;51.310;4.462;2022-09-12T05:11:40;25.33;;;18.67;;
12832;SDS011;6483;51.310;4.462;2022-09-12T05:14:08;26.83;;;17.77;;
12832;SDS011;6483;51.310;4.462;2022-09-12T05:16:35;25.93;;;18.00;;
12832;SDS011;6483;51.310;4.462;2022-09-12T05:19:05;26.63;;;18.57;;
12832;SDS011;6483;51.310;4.462;2022-09-12T05:21:31;24.60;;;17.90;;
12832;SDS011;6483;51.310;4.462;2022-09-12T05:24:00;24.97;;;18.30;;
12832;SDS011;6483;51.310;4.462;2022-09-12T05:26:25;24.40;;;17.50;;
12832;SDS011;6483;51.310;4.462;2022-09-12T05:28:55;25.70;;;17.30;;
12832;SDS011;6483;51.310;4.462;2022-09-12T05:31:22;23.47;;;18.03;;
12832;SDS011;6483;51.310;4.462;2022-09-12T05:33:52;25.00;;;18.03;;
12832;SDS011;6483;51.310;4.462;2022-09-12T05:36:25;26.63;;;19.30;;
12832;SDS011;6483;51.310;4.462;2022-09-12T05:39:06;27.17;;;17.83;;
12832;SDS011;6483;51.310;4.462;2022-09-12T05:41:32;24.00;;;17.77;;
12832;SDS011;6483;51.310;4.462;2022-09-12T05:44:00;28.70;;;18.87;;
12832;SDS011;6483;51.310;4.462;2022-09-12T05:46:30;27.27;;;19.23;;
12832;SDS011;6483;51.310;4.462;2022-09-12T05:49:07;27.73;;;19.30;;
12832;SDS011;6483;51.310;4.462;2022-09-12T05:51:40;27.63;;;20.13;;
12832;SDS011;6483;51.310;4.462;2022-09-12T05:54:08;25.97;;;18.87;;
12832;SDS011;6483;51.310;4.462;2022-09-12T05:56:37;30.83;;;21.07;;
12832;SDS011;6483;51.310;4.462;2022-09-12T05:59:10;27.80;;;18.93;;
12832;SDS011;6483;51.310;4.462;2022-09-12T06:01:40;27.17;;;17.73;;
12832;SDS011;6483;51.310;4.462;2022-09-12T06:04:06;28.07;;;19.60;;
12832;SDS011;6483;51.310;4.462;2022-09-12T06:06:34;34.60;;;22.07;;
12832;SDS011;6483;51.310;4.462;2022-09-12T06:09:05;32.10;;;20.67;;
12832;SDS011;6483;51.310;4.462;2022-09-12T06:11:32;28.57;;;20.20;;
12832;SDS011;6483;51.310;4.462;2022-09-12T06:13:59;32.30;;;19.57;;
12832;SDS011;6483;51.310;4.462;2022-09-12T06:16:29;36.67;;;22.97;;
12832;SDS011;6483;51.310;4.462;2022-09-12T06:18:57;30.13;;;21.27;;
12832;SDS011;6483;51.310;4.462;2022-09-12T06:21:32;32.13;;;20.77;;
12832;SDS011;6483;51.310;4.462;2022-09-12T06:24:03;33.03;;;21.30;;
12832;SDS011;6483;51.310;4.462;2022-09-12T06:26:32;31.87;;;22.27;;
12832;SDS011;6483;51.310;4.462;2022-09-12T06:29:01;34.53;;;23.67;;
12832;SDS011;6483;51.310;4.462;2022-09-12T06:31:28;33.53;;;23.73;;
12832;SDS011;6483;51.310;4.462;2022-09-12T06:33:56;34.05;;;23.00;;
12832;SDS011;6483;51.310;4.462;2022-09-12T06:36:29;40.20;;;24.80;;
12832;SDS011;6483;51.310;4.462;2022-09-12T06:39:15;40.40;;;26.23;;
12832;SDS011;6483;51.310;4.462;2022-09-12T06:41:42;41.37;;;25.13;;
12832;SDS011;6483;51.310;4.462;2022-09-12T06:44:20;40.07;;;24.57;;
12832;SDS011;6483;51.310;4.462;2022-09-12T06:46:49;40.15;;;24.60;;
12832;SDS011;6483;51.310;4.462;2022-09-12T06:49:15;43.97;;;26.33;;
12832;SDS011;6483;51.310;4.462;2022-09-12T06:51:41;38.28;;;24.83;;
12832;SDS011;6483;51.310;4.462;2022-09-12T06:54:07;40.00;;;26.30;;
12832;SDS011;6483;51.310;4.462;2022-09-12T06:56:39;42.80;;;28.02;;
12832;SDS011;6483;51.310;4.462;2022-09-12T06:59:05;57.47;;;33.60;;
12832;SDS011;6483;51.310;4.462;2022-09-12T07:01:33;55.80;;;32.28;;
12832;SDS011;6483;51.310;4.462;2022-09-12T07:04:00;57.95;;;35.03;;
12832;SDS011;6483;51.310;4.462;2022-09-12T07:06:34;67.40;;;40.03;;
12832;SDS011;6483;51.310;4.462;2022-09-12T07:09:03;71.43;;;39.80;;
12832;SDS011;6483;51.310;4.462;2022-09-12T07:11:31;73.35;;;40.60;;
12832;SDS011;6483;51.310;4.462;2022-09-12T07:14:02;69.25;;;39.00;;
12832;SDS011;6483;51.310;4.462;2022-09-12T07:16:29;72.90;;;39.30;;
12832;SDS011;6483;51.310;4.462;2022-09-12T07:18:59;67.07;;;37.17;;
12832;SDS011;6483;51.310;4.462;2022-09-12T07:21:26;64.28;;;35.47;;
12832;SDS011;6483;51.310;4.462;2022-09-12T07:23:52;64.25;;;35.38;;
12832;SDS011;6483;51.310;4.462;2022-09-12T07:26:28;61.13;;;35.17;;
12832;SDS011;6483;51.310;4.462;2022-09-12T07:28:54;52.65;;;31.98;;
12832;SDS011;6483;51.310;4.462;2022-09-12T07:31:21;54.00;;;32.85;;
12832;SDS011;6483;51.310;4.462;2022-09-12T07:33:49;45.20;;;29.63;;
12832;SDS011;6483;51.310;4.462;2022-09-12T07:36:16;47.88;;;27.48;;
12832;SDS011;6483;51.310;4.462;2022-09-12T07:38:43;35.03;;;24.15;;
12832;SDS011;6483;51.310;4.462;2022-09-12T07:43:36;32.25;;;22.65;;
12832;SDS011;6483;51.310;4.462;2022-09-12T07:46:01;32.45;;;21.58;;
12832;SDS011;6483;51.310;4.462;2022-09-12T07:48:27;25.33;;;19.63;;
12832;SDS011;6483;51.310;4.462;2022-09-12T07:50:56;24.48;;;19.83;;
12832;SDS011;6483;51.310;4.462;2022-09-12T07:53:23;28.55;;;19.55;;
12832;SDS011;6483;51.310;4.462;2022-09-12T07:55:53;26.45;;;18.15;;
12832;SDS011;6483;51.310;4.462;2022-09-12T07:58:19;22.90;;;17.20;;
12832;SDS011;6483;51.310;4.462;2022-09-12T08:00:46;22.33;;;17.13;;
12832;SDS011;6483;51.310;4.462;2022-09-12T08:03:11;26.27;;;16.80;;
12832;SDS011;6483;51.310;4.462;2022-09-12T08:05:37;18.67;;;15.05;;
12832;SDS011;6483;51.310;4.462;2022-09-12T08:08:02;18.52;;;14.75;;
12832;SDS011;6483;51.310;4.462;2022-09-12T08:10:28;14.93;;;13.20;;
12832;SDS011;6483;51.310;4.462;2022-09-12T08:12:54;15.25;;;13.00;;
12832;SDS011;6483;51.310;4.462;2022-09-12T08:15:19;15.00;;;11.63;;
12832;SDS011;6483;51.310;4.462;2022-09-12T08:17:45;22.77;;;12.77;;
12832;SDS011;6483;51.310;4.462;2022-09-12T08:20:11;16.48;;;11.10;;
12832;SDS011;6483;51.310;4.462;2022-09-12T08:22:36;13.32;;;10.88;;
12832;SDS011;6483;51.310;4.462;2022-09-12T08:25:03;15.90;;;10.43;;
12832;SDS011;6483;51.310;4.462;2022-09-12T08:27:29;12.80;;;9.20;;
12832;SDS011;6483;51.310;4.462;2022-09-12T08:29:58;9.82;;;7.80;;
12832;SDS011;6483;51.310;4.462;2022-09-12T08:32:27;10.13;;;7.47;;
12832;SDS011;6483;51.310;4.462;2022-09-12T08:34:58;9.45;;;7.15;;
12832;SDS011;6483;51.310;4.462;2022-09-12T08:37:32;8.70;;;6.55;;
12832;SDS011;6483;51.310;4.462;2022-09-12T08:39:58;7.32;;;6.20;;
12832;SDS011;6483;51.310;4.462;2022-09-12T08:43:14;9.90;;;6.82;;
12832;SDS011;6483;51.310;4.462;2022-09-12T08:45:35;7.15;;;5.55;;
12832;SDS011;6483;51.310;4.462;2022-09-12T08:48:10;6.22;;;5.10;;
12832;SDS011;6483;51.310;4.462;2022-09-12T08:50:38;7.20;;;5.38;;
12832;SDS011;6483;51.310;4.462;2022-09-12T08:53:12;7.65;;;5.65;;
12832;SDS011;6483;51.310;4.462;2022-09-12T08:55:43;8.00;;;4.50;;
12832;SDS011;6483;51.310;4.462;2022-09-12T08:58:16;7.47;;;4.85;;
12832;SDS011;6483;51.310;4.462;2022-09-12T09:14:42;6.15;;;3.08;;
12832;SDS011;6483;51.310;4.462;2022-09-12T09:17:19;2.92;;;2.50;;
12832;SDS011;6483;51.310;4.462;2022-09-12T09:19:56;3.83;;;2.38;;
12832;SDS011;6483;51.310;4.462;2022-09-12T09:22:51;4.50;;;2.47;;
12832;SDS011;6483;51.310;4.462;2022-09-12T09:28:09;3.58;;;2.65;;
12832;SDS011;6483;51.310;4.462;2022-09-12T09:31:03;4.38;;;2.70;;
12832;SDS011;6483;51.310;4.462;2022-09-12T09:33:35;4.32;;;2.72;;
12832;SDS011;6483;51.310;4.462;2022-09-12T09:36:15;3.83;;;2.33;;
12832;SDS011;6483;51.310;4.462;2022-09-12T09:38:59;4.40;;;2.75;;
12832;SDS011;6483;51.310;4.462;2022-09-12T09:43:59;4.25;;;1.90;;
12832;SDS011;6483;51.310;4.462;2022-09-12T09:46:26;3.63;;;2.70;;
12832;SDS011;6483;51.310;4.462;2022-09-12T09:48:53;3.75;;;2.60;;
12832;SDS011;6483;51.310;4.462;2022-09-12T09:51:27;2.95;;;2.22;;
12832;SDS011;6483;51.310;4.462;2022-09-12T09:56:41;2.08;;;1.88;;
12832;SDS011;6483;51.310;4.462;2022-09-12T09:59:10;3.40;;;2.10;;
12832;SDS011;6483;51.310;4.462;2022-09-12T10:04:33;2.08;;;1.88;;
12832;SDS011;6483;51.310;4.462;2022-09-12T10:07:03;2.00;;;1.80;;
12832;SDS011;6483;51.310;4.462;2022-09-12T10:09:33;2.58;;;1.80;;
12832;SDS011;6483;51.310;4.462;2022-09-12T10:12:01;2.55;;;2.03;;
12832;SDS011;6483;51.310;4.462;2022-09-12T10:14:59;6.90;;;2.10;;
12832;SDS011;6483;51.310;4.462;2022-09-12T10:17:30;2.40;;;1.60;;
12832;SDS011;6483;51.310;4.462;2022-09-12T10:23:40;3.22;;;1.98;;
12832;SDS011;6483;51.310;4.462;2022-09-12T10:25:56;3.60;;;1.90;;
12832;SDS011;6483;51.310;4.462;2022-09-12T10:28:32;3.13;;;1.95;;
12832;SDS011;6483;51.310;4.462;2022-09-12T10:31:06;3.63;;;1.60;;
12832;SDS011;6483;51.310;4.462;2022-09-12T10:33:47;1.60;;;1.50;;
12832;SDS011;6483;51.310;4.462;2022-09-12T10:36:18;3.35;;;1.90;;
12832;SDS011;6483;51.310;4.462;2022-09-12T10:38:50;2.42;;;2.10;;
12832;SDS011;6483;51.310;4.462;2022-09-12T10:41:24;2.20;;;1.70;;
12832;SDS011;6483;51.310;4.462;2022-09-12T10:43:51;3.97;;;1.27;;
12832;SDS011;6483;51.310;4.462;2022-09-12T10:46:29;1.70;;;1.40;;
12832;SDS011;6483;51.310;4.462;2022-09-12T10:49:12;3.05;;;1.73;;
12832;SDS011;6483;51.310;4.462;2022-09-12T10:51:45;2.58;;;2.03;;
12832;SDS011;6483;51.310;4.462;2022-09-12T10:54:11;2.42;;;1.50;;
12832;SDS011;6483;51.310;4.462;2022-09-12T10:56:52;2.20;;;1.80;;
12832;SDS011;6483;51.310;4.462;2022-09-12T11:08:34;2.30;;;1.70;;
12832;SDS011;6483;51.310;4.462;2022-09-12T11:17:47;2.95;;;1.60;;
12832;SDS011;6483;51.310;4.462;2022-09-12T11:20:11;4.53;;;1.40;;
12832;SDS011;6483;51.310;4.462;2022-09-12T11:23:32;2.00;;;1.40;;
12832;SDS011;6483;51.310;4.462;2022-09-12T11:35:25;3.00;;;1.50;;
12832;SDS011;6483;51.310;4.462;2022-09-12T11:40:32;3.05;;;1.80;;
12832;SDS011;6483;51.310;4.462;2022-09-12T11:46:23;2.50;;;1.90;;
12832;SDS011;6483;51.310;4.462;2022-09-12T11:49:04;9.10;;;1.92;;
12832;SDS011;6483;51.310;4.462;2022-09-12T11:51:38;4.65;;;2.05;;
12832;SDS011;6483;51.310;4.462;2022-09-12T11:54:28;3.92;;;2.03;;
12832;SDS011;6483;51.310;4.462;2022-09-12T11:59:53;2.92;;;1.60;;
12832;SDS011;6483;51.310;4.462;2022-09-12T12:02:27;2.67;;;2.10;;
12832;SDS011;6483;51.310;4.462;2022-09-12T12:05:01;4.35;;;2.17;;
12832;SDS011;6483;51.310;4.462;2022-09-12T12:07:40;2.78;;;1.85;;
12832;SDS011;6483;51.310;4.462;2022-09-12T12:10:28;3.88;;;1.85;;
12832;SDS011;6483;51.310;4.462;2022-09-12T12:12:59;2.85;;;1.73;;
12832;SDS011;6483;51.310;4.462;2022-09-12T12:15:57;2.75;;;1.90;;
12832;SDS011;6483;51.310;4.462;2022-09-12T12:18:38;2.58;;;1.77;;
12832;SDS011;6483;51.310;4.462;2022-09-12T12:34:38;1.33;;;1.23;;
12832;SDS011;6483;51.310;4.462;2022-09-12T12:55:47;4.03;;;1.40;;
12832;SDS011;6483;51.310;4.462;2022-09-12T12:58:35;1.92;;;1.45;;
12832;SDS011;6483;51.310;4.462;2022-09-12T13:01:11;1.67;;;1.23;;
12832;SDS011;6483;51.310;4.462;2022-09-12T13:04:14;2.28;;;1.35;;
12832;SDS011;6483;51.310;4.462;2022-09-12T13:06:54;1.90;;;1.45;;
12832;SDS011;6483;51.310;4.462;2022-09-12T13:09:30;2.38;;;1.42;;
12832;SDS011;6483;51.310;4.462;2022-09-12T13:12:32;5.90;;;1.75;;
12832;SDS011;6483;51.310;4.462;2022-09-12T13:15:02;3.03;;;1.40;;
12832;SDS011;6483;51.310;4.462;2022-09-12T13:17:48;1.77;;;1.50;;
12832;SDS011;6483;51.310;4.462;2022-09-12T13:20:21;2.42;;;1.30;;
12832;SDS011;6483;51.310;4.462;2022-09-12T13:22:57;2.65;;;1.40;;
12832;SDS011;6483;51.310;4.462;2022-09-12T13:25:32;2.65;;;1.35;;
12832;SDS011;6483;51.310;4.462;2022-09-12T13:30:29;1.30;;;1.20;;
12832;SDS011;6483;51.310;4.462;2022-09-12T13:33:17;1.35;;;1.23;;
12832;SDS011;6483;51.310;4.462;2022-09-12T13:44:06;1.85;;;1.20;;
12832;SDS011;6483;51.310;4.462;2022-09-12T13:46:35;2.55;;;1.40;;
12832;SDS011;6483;51.310;4.462;2022-09-12T13:49:05;2.50;;;1.42;;
12832;SDS011;6483;51.310;4.462;2022-09-12T13:51:39;1.40;;;1.15;;
12832;SDS011;6483;51.310;4.462;2022-09-12T13:54:11;1.63;;;1.23;;
12832;SDS011;6483;51.310;4.462;2022-09-12T13:56:48;1.10;;;0.95;;
12832;SDS011;6483;51.310;4.462;2022-09-12T13:59:14;2.03;;;1.10;;
12832;SDS011;6483;51.310;4.462;2022-09-12T14:01:43;1.58;;;1.20;;
12832;SDS011;6483;51.310;4.462;2022-09-12T14:04:17;1.13;;;1.00;;
12832;SDS011;6483;51.310;4.462;2022-09-12T14:07:12;0.95;;;0.82;;
12832;SDS011;6483;51.310;4.462;2022-09-12T14:10:02;1.75;;;1.10;;
12832;SDS011;6483;51.310;4.462;2022-09-12T14:12:31;1.75;;;1.10;;
12832;SDS011;6483;51.310;4.462;2022-09-12T14:15:02;1.45;;;1.00;;
12832;SDS011;6483;51.310;4.462;2022-09-12T14:17:32;3.38;;;1.05;;
12832;SDS011;6483;51.310;4.462;2022-09-12T14:20:00;3.63;;;1.35;;
12832;SDS011;6483;51.310;4.462;2022-09-12T14:22:33;1.40;;;1.10;;
12832;SDS011;6483;51.310;4.462;2022-09-12T14:25:03;3.03;;;1.48;;
12832;SDS011;6483;51.310;4.462;2022-09-12T14:27:35;2.15;;;1.40;;
12832;SDS011;6483;51.310;4.462;2022-09-12T14:38:23;7.20;;;1.75;;
12832;SDS011;6483;51.310;4.462;2022-09-12T14:41:00;1.33;;;1.02;;
12832;SDS011;6483;51.310;4.462;2022-09-12T14:43:34;2.30;;;1.38;;
12832;SDS011;6483;51.310;4.462;2022-09-12T14:46:06;4.00;;;1.17;;
12832;SDS011;6483;51.310;4.462;2022-09-12T14:48:42;4.95;;;1.30;;
12832;SDS011;6483;51.310;4.462;2022-09-12T14:51:20;3.53;;;1.27;;
12832;SDS011;6483;51.310;4.462;2022-09-12T14:53:52;2.33;;;1.60;;
12832;SDS011;6483;51.310;4.462;2022-09-12T14:56:21;3.35;;;1.52;;
12832;SDS011;6483;51.310;4.462;2022-09-12T14:59:47;3.58;;;1.40;;
12832;SDS011;6483;51.310;4.462;2022-09-12T15:02:23;4.80;;;1.30;;
12832;SDS011;6483;51.310;4.462;2022-09-12T15:07:40;4.10;;;1.30;;
12832;SDS011;6483;51.310;4.462;2022-09-12T15:15:44;1.27;;;1.17;;
12832;SDS011;6483;51.310;4.462;2022-09-12T15:18:13;2.65;;;1.40;;
12832;SDS011;6483;51.310;4.462;2022-09-12T15:20:40;3.90;;;1.13;;
12832;SDS011;6483;51.310;4.462;2022-09-12T15:23:28;2.55;;;1.35;;
12832;SDS011;6483;51.310;4.462;2022-09-12T15:26:22;2.78;;;1.58;;
12832;SDS011;6483;51.310;4.462;2022-09-12T15:28:54;1.65;;;1.23;;
12832;SDS011;6483;51.310;4.462;2022-09-12T15:33:57;2.80;;;1.27;;
12832;SDS011;6483;51.310;4.462;2022-09-12T15:36:24;3.28;;;1.48;;
12832;SDS011;6483;51.310;4.462;2022-09-12T15:38:53;3.05;;;1.27;;
12832;SDS011;6483;51.310;4.462;2022-09-12T15:41:30;3.38;;;1.45;;
12832;SDS011;6483;51.310;4.462;2022-09-12T15:43:58;2.30;;;1.23;;
12832;SDS011;6483;51.310;4.462;2022-09-12T15:46:34;3.30;;;1.50;;
12832;SDS011;6483;51.310;4.462;2022-09-12T15:49:00;4.03;;;1.75;;
12832;SDS011;6483;51.310;4.462;2022-09-12T15:51:29;5.00;;;2.00;;
12832;SDS011;6483;51.310;4.462;2022-09-12T15:53:54;2.75;;;1.60;;
12832;SDS011;6483;51.310;4.462;2022-09-12T15:56:20;2.47;;;1.73;;
12832;SDS011;6483;51.310;4.462;2022-09-12T15:58:47;3.22;;;1.70;;
12832;SDS011;6483;51.310;4.462;2022-09-12T16:01:14;4.40;;;1.90;;
12832;SDS011;6483;51.310;4.462;2022-09-12T16:03:41;2.50;;;1.50;;
12832;SDS011;6483;51.310;4.462;2022-09-12T16:06:09;3.78;;;1.50;;
12832;SDS011;6483;51.310;4.462;2022-09-12T16:08:35;2.50;;;1.40;;
12832;SDS011;6483;51.310;4.462;2022-09-12T16:11:12;3.38;;;1.73;;
12832;SDS011;6483;51.310;4.462;2022-09-12T16:13:45;1.88;;;1.65;;
12832;SDS011;6483;51.310;4.462;2022-09-12T16:16:12;4.68;;;1.77;;
12832;SDS011;6483;51.310;4.462;2022-09-12T16:18:38;4.68;;;1.80;;
12832;SDS011;6483;51.310;4.462;2022-09-12T16:21:07;3.50;;;1.42;;
12832;SDS011;6483;51.310;4.462;2022-09-12T16:23:33;1.85;;;1.50;;
12832;SDS011;6483;51.310;4.462;2022-09-12T16:25:59;2.22;;;1.50;;
12832;SDS011;6483;51.310;4.462;2022-09-12T16:28:28;2.60;;;1.23;;
12832;SDS011;6483;51.310;4.462;2022-09-12T16:30:58;1.38;;;1.27;;
12832;SDS011;6483;51.310;4.462;2022-09-12T16:33:26;2.80;;;1.40;;
12832;SDS011;6483;51.310;4.462;2022-09-12T16:36:02;2.45;;;1.20;;
12832;SDS011;6483;51.310;4.462;2022-09-12T16:38:30;3.17;;;1.45;;
12832;SDS011;6483;51.310;4.462;2022-09-12T16:40:59;3.67;;;1.40;;
12832;SDS011;6483;51.310;4.462;2022-09-12T16:43:29;3.55;;;1.30;;
12832;SDS011;6483;51.310;4.462;2022-09-12T16:46:00;3.03;;;1.52;;
12832;SDS011;6483;51.310;4.462;2022-09-12T16:48:32;2.65;;;1.50;;
12832;SDS011;6483;51.310;4.462;2022-09-12T16:51:02;4.22;;;1.95;;
12832;SDS011;6483;51.310;4.462;2022-09-12T16:53:34;2.15;;;1.30;;
12832;SDS011;6483;51.310;4.462;2022-09-12T16:56:01;5.80;;;1.25;;
12832;SDS011;6483;51.310;4.462;2022-09-12T16:58:32;1.75;;;1.50;;
12832;SDS011;6483;51.310;4.462;2022-09-12T17:01:03;1.85;;;1.30;;
12832;SDS011;6483;51.310;4.462;2022-09-12T17:03:30;2.30;;;1.38;;
12832;SDS011;6483;51.310;4.462;2022-09-12T17:06:04;2.63;;;1.23;;
12832;SDS011;6483;51.310;4.462;2022-09-12T17:08:37;2.90;;;1.27;;
12832;SDS011;6483;51.310;4.462;2022-09-12T17:11:05;1.77;;;1.33;;
12832;SDS011;6483;51.310;4.462;2022-09-12T17:13:33;2.75;;;1.23;;
12832;SDS011;6483;51.310;4.462;2022-09-12T17:16:03;2.22;;;1.30;;
12832;SDS011;6483;51.310;4.462;2022-09-12T17:18:32;4.25;;;1.50;;
12832;SDS011;6483;51.310;4.462;2022-09-12T17:20:58;1.52;;;1.27;;
12832;SDS011;6483;51.310;4.462;2022-09-12T17:23:27;3.13;;;1.70;;
12832;SDS011;6483;51.310;4.462;2022-09-12T17:25:52;2.00;;;1.50;;
12832;SDS011;6483;51.310;4.462;2022-09-12T17:28:18;2.03;;;1.40;;
12832;SDS011;6483;51.310;4.462;2022-09-12T17:30:44;1.65;;;1.50;;
12832;SDS011;6483;51.310;4.462;2022-09-12T17:33:11;1.40;;;1.30;;
12832;SDS011;6483;51.310;4.462;2022-09-12T17:35:37;1.65;;;1.55;;
12832;SDS011;6483;51.310;4.462;2022-09-12T17:38:10;2.70;;;1.67;;
12832;SDS011;6483;51.310;4.462;2022-09-12T17:40:35;3.95;;;1.80;;
12832;SDS011;6483;51.310;4.462;2022-09-12T17:43:04;3.50;;;1.60;;
12832;SDS011;6483;51.310;4.462;2022-09-12T17:45:30;4.63;;;2.20;;
12832;SDS011;6483;51.310;4.462;2022-09-12T17:47:56;2.42;;;1.63;;
12832;SDS011;6483;51.310;4.462;2022-09-12T17:50:26;3.30;;;1.80;;
12832;SDS011;6483;51.310;4.462;2022-09-12T17:52:58;2.58;;;1.60;;
12832;SDS011;6483;51.310;4.462;2022-09-12T17:55:24;3.08;;;2.45;;
12832;SDS011;6483;51.310;4.462;2022-09-12T17:57:59;5.38;;;3.10;;
12832;SDS011;6483;51.310;4.462;2022-09-12T18:00:26;3.78;;;2.90;;